Time;durP1;ratioP1;P1;durP2;ratioP2;P2;SDS_P1;SDS_P2;PMS_P1;PMS_P2;Temp;Humidity;BMP_temperature;BMP_pressure;BME280_temperature;BME280_humidity;BME280_pressure;Samples;Min_cycle;Max_cycle;Signal;HPM_P1;HPM_P2
2021/01/30 04:03:03;;;;;;;14.00;7.70;;;;;;;-0.28;100.00;99074.39;1686004;78;21056;-74
2021/01/30 04:05:31;;;;;;;13.62;8.33;;;;;;;-0.34;100.00;99085.22;1650127;85;21794;-73
2021/01/30 04:08:00;;;;;;;11.43;8.15;;;;;;;-0.38;100.00;99083.89;1640439;85;21570;-72
2021/01/30 04:10:33;;;;;;;12.93;7.97;;;;;;;-0.43;100.00;99087.33;1645858;86;21240;-72
2021/01/30 04:13:06;;;;;;;14.70;8.83;;;;;;;-0.46;100.00;99094.00;1653905;85;21388;-72
2021/01/30 04:15:37;;;;;;;;;;;;;;;-0.49;100.00;99098.15;1659941;86;21658;-72
2021/01/30 04:18:06;;;;;;;13.80;8.73;;;;;;;-0.51;100.00;99097.47;1656622;84;20494;-73
2021/01/30 04:20:34;;;;;;;18.15;12.47;;;;;;;-0.55;100.00;99098.70;1634155;87;21227;-73
2021/01/30 04:23:03;;;;;;;18.25;11.57;;;;;;;-0.59;100.00;99098.17;1632105;85;21663;-73
2021/01/30 04:25:33;;;;;;;17.02;10.18;;;;;;;-0.60;100.00;99103.44;1656845;86;21327;-72
2021/01/30 04:28:02;;;;;;;15.58;10.35;;;;;;;-0.63;100.00;99101.96;1641905;86;21312;-72
2021/01/30 04:30:30;;;;;;;15.72;10.48;;;;;;;-0.65;100.00;99104.31;1657274;86;22569;-73
2021/01/30 04:33:00;;;;;;;18.67;10.70;;;;;;;-0.65;100.00;99111.98;1645525;86;21181;-73
2021/01/30 04:35:32;;;;;;;18.95;12.15;;;;;;;-0.66;100.00;99113.75;1641128;87;21615;-74
2021/01/30 04:38:01;;;;;;;16.00;10.75;;;;;;;-0.68;100.00;99110.54;1636884;85;21256;-72
2021/01/30 04:40:34;;;;;;;23.42;16.15;;;;;;;-0.68;100.00;99116.94;1644455;86;21235;-73
2021/01/30 04:43:35;;;;;;;18.30;12.35;;;;;;;-0.69;100.00;99114.02;1665372;86;21074;-73
2021/01/30 04:46:13;;;;;;;17.15;10.78;;;;;;;-0.68;100.00;99114.83;1616698;86;21303;-73
2021/01/30 04:49:02;;;;;;;16.97;11.90;;;;;;;-0.68;100.00;99110.54;1624330;86;21099;-75
2021/01/30 04:51:35;;;;;;;18.45;11.80;;;;;;;-0.67;100.00;99119.02;1635864;85;22102;-74
2021/01/30 04:54:15;;;;;;;17.15;11.30;;;;;;;-0.67;100.00;99115.98;1647385;84;21537;-73
2021/01/30 04:57:03;;;;;;;20.88;12.33;;;;;;;-0.66;100.00;99125.74;1653216;85;21174;-70
2021/01/30 05:00:24;;;;;;;17.50;11.97;;;;;;;-0.65;100.00;99131.19;1651034;85;21165;-72
2021/01/30 05:03:31;;;;;;;15.97;11.27;;;;;;;-0.60;100.00;99145.67;1800457;78;23293;-73
2021/01/30 05:06:05;;;;;;;19.15;11.75;;;;;;;-0.65;100.00;99146.06;1789384;79;20911;-73
2021/01/30 05:08:48;;;;;;;17.10;11.48;;;;;;;-0.63;100.00;99145.95;1791369;79;21518;-74
2021/01/30 05:11:20;;;;;;;18.32;11.97;;;;;;;-0.63;100.00;99152.34;1768339;79;20951;-74
2021/01/30 05:13:58;;;;;;;19.37;12.73;;;;;;;-0.62;100.00;99159.06;1792017;79;21483;-74
2021/01/30 05:16:31;;;;;;;19.32;12.13;;;;;;;-0.61;100.00;99161.95;1779504;79;21567;-74
2021/01/30 05:19:03;;;;;;;18.80;12.15;;;;;;;-0.61;100.00;99165.79;1795896;79;21577;-74
2021/01/30 05:21:48;;;;;;;17.67;12.23;;;;;;;-0.60;100.00;99167.42;1784358;79;21361;-75
2021/01/30 05:24:16;;;;;;;22.25;13.15;;;;;;;-0.59;100.00;99172.39;1729303;81;20990;-73
2021/01/30 05:27:04;;;;;;;22.77;16.05;;;;;;;-0.59;100.00;99175.43;1724416;82;21200;-71
2021/01/30 05:29:56;;;;;;;28.80;15.88;;;;;;;-0.58;100.00;99184.23;1720810;82;21164;-71
2021/01/30 05:33:06;;;;;;;21.12;13.53;;;;;;;-0.56;100.00;99186.68;1717663;81;27105;-71
2021/01/30 05:35:55;;;;;;;21.65;13.68;;;;;;;-0.56;100.00;99189.23;1750067;80;21367;-71
2021/01/30 05:38:58;;;;;;;24.23;17.05;;;;;;;-0.54;100.00;99195.02;1759982;80;21259;-71
2021/01/30 05:41:32;;;;;;;24.20;15.65;;;;;;;-0.53;100.00;99196.62;1738552;81;21065;-71
2021/01/30 05:44:20;;;;;;;22.30;15.63;;;;;;;-0.52;100.00;99200.34;1730748;81;21099;-70
2021/01/30 05:46:50;;;;;;;25.97;16.17;;;;;;;-0.51;100.00;99199.86;1732484;81;21222;-70
2021/01/30 05:49:23;;;;;;;32.03;19.87;;;;;;;-0.50;100.00;99207.39;1735149;81;22180;-69
2021/01/30 05:52:14;;;;;;;24.87;15.70;;;;;;;-0.48;100.00;99208.55;1737914;81;21101;-69
2021/01/30 05:54:42;;;;;;;27.30;15.68;;;;;;;-0.45;100.00;99207.00;1741972;81;21188;-71
2021/01/30 05:57:11;;;;;;;19.82;13.28;;;;;;;-0.44;100.00;99202.20;1730185;81;20996;-71
2021/01/30 05:59:39;;;;;;;21.48;11.95;;;;;;;-0.41;100.00;99208.34;1730730;81;21489;-71
2021/01/30 06:02:13;;;;;;;23.70;13.00;;;;;;;-0.39;100.00;99208.19;1733485;81;21722;-71
2021/01/30 06:04:41;;;;;;;20.08;12.90;;;;;;;-0.36;100.00;99210.00;1733490;81;21180;-71
2021/01/30 06:07:36;;;;;;;21.60;12.33;;;;;;;-0.35;100.00;99205.20;1732743;81;21022;-71
2021/01/30 06:10:27;;;;;;;18.77;12.43;;;;;;;-0.32;100.00;99209.25;1732200;81;21876;-71
2021/01/30 06:13:13;;;;;;;18.40;12.93;;;;;;;-0.29;100.00;99204.66;1729656;81;21187;-71
2021/01/30 06:15:45;;;;;;;22.73;13.32;;;;;;;-0.26;100.00;99209.51;1726563;81;21228;-70
2021/01/30 06:18:31;;;;;;;20.32;13.15;;;;;;;-0.23;100.00;99214.80;1730001;81;21033;-70
2021/01/30 06:21:11;;;;;;;19.95;14.15;;;;;;;-0.20;100.00;99216.28;1731335;81;20994;-70
2021/01/30 06:23:39;;;;;;;18.70;14.03;;;;;;;-0.17;100.00;99212.98;1732011;81;20957;-70
2021/01/30 06:26:12;;;;;;;21.70;12.43;;;;;;;-0.13;100.00;99211.75;1729113;81;21183;-70
2021/01/30 06:28:43;;;;;;;16.40;11.50;;;;;;;-0.11;100.00;99210.34;1728896;81;22229;-71
2021/01/30 06:31:29;;;;;;;;;;;;;;;-0.07;100.00;99202.71;1729780;81;21512;-70
2021/01/30 06:34:06;;;;;;;32.83;19.48;;;;;;;-0.04;100.00;99202.41;1729962;81;20397;-70
2021/01/30 06:36:34;;;;;;;23.50;15.90;;;;;;;0.01;100.00;99200.73;1706610;81;21603;-70
2021/01/30 06:39:12;;;;;;;19.75;13.55;;;;;;;0.06;100.00;99198.05;1734410;81;21224;-70
2021/01/30 06:41:41;;;;;;;18.15;12.60;;;;;;;0.11;100.00;99191.22;1734154;81;21381;-69
2021/01/30 06:44:22;;;;;;;17.57;12.53;;;;;;;0.17;100.00;99194.03;1730025;81;21168;-70
2021/01/30 06:47:11;;;;;;;20.55;13.50;;;;;;;0.22;100.00;99187.98;1720277;81;21034;-68
2021/01/30 06:49:50;;;;;;;20.52;13.18;;;;;;;0.30;100.00;99194.16;1732242;81;21160;-71
2021/01/30 06:52:25;;;;;;;18.17;11.43;;;;;;;0.39;100.00;99188.19;1740233;81;21375;-69
2021/01/30 06:55:12;;;;;;;17.17;11.68;;;;;;;0.46;100.00;99190.03;1731567;81;21204;-70
2021/01/30 06:58:02;;;;;;;18.30;11.57;;;;;;;0.54;100.00;99191.88;1738948;81;21065;-70
2021/01/30 07:00:32;;;;;;;17.52;11.40;;;;;;;0.60;100.00;99188.72;1739874;81;21207;-69
2021/01/30 07:03:07;;;;;;;;;;;;;;;0.68;100.00;99196.52;1744689;81;21179;-68
2021/01/30 07:06:11;;;;;;;15.63;10.23;;;;;;;0.79;100.00;99187.77;1739687;81;20168;-69
2021/01/30 07:09:01;;;;;;;17.77;10.90;;;;;;;0.90;100.00;99186.75;1739785;81;22820;-68
2021/01/30 07:11:57;;;;;;;18.23;12.05;;;;;;;1.05;100.00;99198.11;1737890;81;21022;-70
2021/01/30 07:14:45;;;;;;;19.02;11.65;;;;;;;1.18;100.00;99193.41;1741560;81;21021;-67
2021/01/30 07:17:25;;;;;;;17.92;10.80;;;;;;;1.33;100.00;99194.17;1721358;81;21368;-66
2021/01/30 07:20:46;;;;;;;14.60;10.60;;;;;;;1.44;100.00;99195.21;1733652;81;21117;-66
2021/01/30 07:23:25;;;;;;;16.73;11.00;;;;;;;1.56;100.00;99197.85;1738344;81;21211;-69
2021/01/30 07:26:13;;;;;;;23.02;15.72;;;;;;;1.65;100.00;99199.50;1708132;81;21144;-70
2021/01/30 07:29:00;;;;;;;18.98;12.82;;;;;;;1.74;100.00;99202.91;1725592;81;21097;-72
2021/01/30 07:31:33;;;;;;;27.30;17.62;;;;;;;1.87;100.00;99208.95;1741399;81;21591;-70
2021/01/30 07:34:21;;;;;;;21.65;15.08;;;;;;;1.99;100.00;99203.05;1725284;81;21460;-66
2021/01/30 07:37:00;;;;;;;29.00;18.92;;;;;;;2.10;100.00;99197.64;1728933;81;22191;-67
2021/01/30 07:39:53;;;;;;;23.18;15.88;;;;;;;2.22;100.00;99207.17;1730175;81;21022;-66
2021/01/30 07:42:44;;;;;;;24.75;17.32;;;;;;;2.33;100.00;99208.17;1743641;81;22105;-66
2021/01/30 07:45:24;;;;;;;18.05;12.35;;;;;;;2.40;100.00;99200.16;1736106;81;21069;-69
2021/01/30 07:48:13;;;;;;;19.57;14.38;;;;;;;2.48;100.00;99200.19;1733525;81;21348;-69
2021/01/30 07:50:45;;;;;;;65.60;39.45;;;;;;;2.54;100.00;99198.28;1733272;81;22148;-69
2021/01/30 07:53:16;;;;;;;33.70;21.12;;;;;;;2.58;100.00;99199.58;1730748;81;21395;-67
2021/01/30 07:56:18;;;;;;;29.23;19.95;;;;;;;2.61;100.00;99206.98;1732020;81;21130;-66
2021/01/30 07:59:18;;;;;;;20.25;14.60;;;;;;;2.61;100.00;99211.30;1726716;81;21163;-67
2021/01/30 08:02:10;;;;;;;16.62;11.93;;;;;;;2.57;100.00;99217.72;1738925;81;21104;-67
2021/01/30 08:05:17;;;;;;;;;;;;;;;2.54;100.00;99215.00;1736327;82;21503;-67
2021/01/30 08:08:08;;;;;;;51.42;41.85;;;;;;;2.50;100.00;99212.42;1670293;84;20244;-66
2021/01/30 08:11:20;;;;;;;23.53;16.07;;;;;;;2.51;100.00;99212.73;1818083;78;23365;-66
2021/01/30 08:14:16;;;;;;;20.77;13.55;;;;;;;2.54;100.00;99216.28;1806183;79;20981;-68
2021/01/30 08:17:06;;;;;;;19.17;13.28;;;;;;;2.67;100.00;99217.11;1801409;79;21581;-68
2021/01/30 08:19:57;;;;;;;19.85;13.22;;;;;;;2.79;100.00;99218.41;1748585;77;21121;-69
2021/01/30 08:22:31;;;;;;;18.23;11.45;;;;;;;2.90;100.00;99218.11;1794930;79;21025;-69
2021/01/30 08:25:07;;;;;;;17.77;12.70;;;;;;;3.04;100.00;99219.27;1792587;79;21051;-68
2021/01/30 08:27:38;;;;;;;18.50;12.40;;;;;;;3.13;100.00;99215.72;1804083;79;20992;-68
2021/01/30 08:30:12;;;;;;;;;;;;;;;3.18;100.00;99216.52;1814856;79;21201;-68
2021/01/30 08:33:02;;;;;;;96.92;50.03;;;;;;;3.26;100.00;99219.12;1794428;79;20179;-68
2021/01/30 08:35:36;;;;;;;71.92;45.52;;;;;;;3.33;100.00;99220.54;1767269;79;21153;-67
2021/01/30 08:38:15;;;;;;;26.42;17.17;;;;;;;3.38;100.00;99224.75;1788553;79;21117;-68
2021/01/30 08:40:54;;;;;;;20.12;13.28;;;;;;;3.38;100.00;99231.19;1780501;79;21209;-68
2021/01/30 08:43:36;;;;;;;608.07;250.82;;;;;;;3.32;100.00;99226.18;1790526;79;21643;-66
2021/01/30 08:46:28;;;;;;;676.42;466.18;;;;;;;3.25;100.00;99223.13;1795397;79;21189;-67
2021/01/30 08:49:21;;;;;;;212.00;124.10;;;;;;;3.13;100.00;99215.72;1794637;78;21220;-68
2021/01/30 08:51:51;;;;;;;;;;;;;;;3.01;100.00;99217.00;1794184;79;22183;-68
2021/01/30 08:54:36;;;;;;;203.65;154.45;;;;;;;2.92;100.00;99212.83;1788324;79;20267;-67
2021/01/30 08:57:24;;;;;;;65.03;52.10;;;;;;;2.84;100.00;99208.92;1788146;79;21369;-70
2021/01/30 08:59:53;;;;;;;81.45;71.67;;;;;;;2.81;100.00;99211.36;1793341;79;21041;-70
2021/01/30 09:02:35;;;;;;;41.45;35.23;;;;;;;2.79;100.00;99208.13;1803232;79;21014;-68
2021/01/30 09:05:35;;;;;;;26.90;22.35;;;;;;;2.79;100.00;99212.47;1800131;79;21058;-68
2021/01/30 09:08:23;;;;;;;20.20;13.80;;;;;;;2.78;100.00;99210.38;1803857;79;21628;-68
2021/01/30 09:10:53;;;;;;;24.37;15.55;;;;;;;2.77;100.00;99212.64;1775853;79;21367;-68
2021/01/30 09:13:21;;;;;;;515.60;298.87;;;;;;;2.75;100.00;99209.41;1789226;79;21185;-69
2021/01/30 09:15:56;;;;;;;237.82;92.78;;;;;;;2.75;100.00;99206.83;1795362;78;21094;-70
2021/01/30 09:18:36;;;;;;;87.47;39.88;;;;;;;2.76;100.00;99195.56;1773309;79;21204;-67
2021/01/30 09:21:40;;;;;;;35.90;19.20;;;;;;;2.78;100.00;99199.28;1790973;79;21608;-69
2021/01/30 09:24:22;;;;;;;22.37;13.30;;;;;;;2.72;100.00;99196.05;1789652;79;21205;-68
2021/01/30 09:27:15;;;;;;;18.60;12.25;;;;;;;2.63;100.00;99196.52;1786218;79;21139;-70
2021/01/30 09:29:46;;;;;;;186.77;89.85;;;;;;;2.55;100.00;99202.94;1781578;79;21149;-66
2021/01/30 09:32:17;;;;;;;70.65;31.37;;;;;;;2.41;100.00;99200.00;1780496;79;20984;-70
2021/01/30 09:34:49;;;;;;;40.98;20.20;;;;;;;2.34;100.00;99204.15;1773717;79;27501;-68
2021/01/30 09:37:37;;;;;;;35.15;19.67;;;;;;;2.31;100.00;99211.37;1779553;78;21198;-66
2021/01/30 09:40:25;;;;;;;763.03;333.15;;;;;;;2.30;100.00;99208.48;1787219;79;21643;-69
2021/01/30 09:43:06;;;;;;;59.25;30.72;;;;;;;2.26;100.00;99207.98;1793448;79;20978;-69
2021/01/30 09:45:36;;;;;;;41.55;23.07;;;;;;;2.23;100.00;99202.34;1789861;79;21322;-70
2021/01/30 09:48:10;;;;;;;37.13;20.27;;;;;;;2.19;100.00;99197.50;1795958;79;21204;-72
2021/01/30 09:50:49;;;;;;;54.15;27.52;;;;;;;2.17;100.00;99195.59;1782570;79;22593;-70
2021/01/30 09:53:22;;;;;;;47.93;24.65;;;;;;;2.16;100.00;99193.19;1787662;79;21010;-71
2021/01/30 09:56:07;;;;;;;25.88;15.45;;;;;;;2.17;100.00;99196.88;1777492;79;21534;-68
2021/01/30 09:58:36;;;;;;;23.83;14.53;;;;;;;2.20;100.00;99195.77;1789071;79;21271;-70
2021/01/30 10:01:09;;;;;;;21.37;12.88;;;;;;;2.25;100.00;99192.72;1782865;79;20933;-71
2021/01/30 10:03:41;;;;;;;17.37;11.50;;;;;;;2.27;100.00;99192.07;1798045;79;21212;-72
2021/01/30 10:06:17;;;;;;;19.62;11.40;;;;;;;2.26;100.00;99187.90;1798296;79;26827;-72
2021/01/30 10:08:45;;;;;;;17.90;11.15;;;;;;;2.22;100.00;99190.45;1799400;79;21055;-71
2021/01/30 10:11:19;;;;;;;13.95;10.03;;;;;;;2.21;100.00;99187.57;1745150;81;21323;-68
2021/01/30 10:13:50;;;;;;;18.02;12.53;;;;;;;2.22;100.00;99182.75;1746340;81;21138;-68
2021/01/30 10:16:20;;;;;;;18.82;13.05;;;;;;;2.22;100.00;99183.55;1771057;79;21194;-70
2021/01/30 10:18:53;;;;;;;22.27;12.75;;;;;;;2.24;100.00;99176.50;1807983;79;21004;-70
2021/01/30 10:21:37;;;;;;;21.10;13.65;;;;;;;2.22;100.00;99170.69;1802306;79;21632;-69
2021/01/30 10:24:22;;;;;;;26.27;13.88;;;;;;;2.17;100.00;99172.45;1792474;79;21527;-69
2021/01/30 10:26:52;;;;;;;25.02;12.15;;;;;;;2.17;100.00;99167.31;1796637;79;21235;-71
2021/01/30 10:29:22;;;;;;;25.23;13.50;;;;;;;2.25;100.00;99164.44;1806955;79;21254;-71
2021/01/30 10:32:00;;;;;;;20.52;11.75;;;;;;;2.32;100.00;99170.58;1804382;79;21059;-70
2021/01/30 10:34:31;;;;;;;23.07;13.03;;;;;;;2.34;100.00;99175.86;1812975;78;21011;-69
2021/01/30 10:37:03;;;;;;;22.10;12.70;;;;;;;2.34;100.00;99171.20;1797431;79;21012;-68
2021/01/30 10:39:35;;;;;;;20.43;11.22;;;;;;;2.35;100.00;99172.35;1801525;79;20982;-74
2021/01/30 10:42:09;;;;;;;;;;;;;;;2.35;100.00;99167.20;1800406;79;21198;-71
2021/01/30 10:44:41;;;;;;;20.40;12.68;;;;;;;2.33;100.00;99163.97;1808791;79;20304;-70
2021/01/30 10:47:09;;;;;;;;;;;;;;;2.34;100.00;99166.06;1770015;79;21638;-71
2021/01/30 10:49:38;;;;;;;20.60;12.35;;;;;;;2.29;100.00;99161.88;1801902;79;20177;-71
2021/01/30 10:52:16;;;;;;;19.00;11.40;;;;;;;2.22;100.00;99159.12;1805284;79;21003;-70
2021/01/30 10:54:44;;;;;;;19.85;11.97;;;;;;;2.14;100.00;99154.76;1804462;79;21311;-69
2021/01/30 10:57:25;;;;;;;20.82;11.50;;;;;;;2.05;100.00;99153.62;1798283;79;21006;-73
2021/01/30 11:00:02;;;;;;;18.95;12.20;;;;;;;1.97;100.00;99149.25;1800461;78;20990;-70
2021/01/30 11:02:40;;;;;;;18.32;12.68;;;;;;;1.86;100.00;99143.91;1801250;79;21054;-71
2021/01/30 11:05:25;;;;;;;17.20;10.68;;;;;;;1.82;100.00;99139.20;1806752;79;20971;-68
2021/01/30 11:08:01;;;;;;;18.80;10.95;;;;;;;1.78;100.00;99141.30;1798087;79;22308;-68
2021/01/30 11:10:42;;;;;;;24.30;13.72;;;;;;;1.75;100.00;99135.66;1795512;78;21129;-68
2021/01/30 11:13:26;;;;;;;23.75;12.88;;;;;;;1.71;100.00;99128.74;1787915;79;20967;-70
2021/01/30 11:16:15;;;;;;;22.02;12.65;;;;;;;1.72;100.00;99129.55;1783082;79;20923;-70
2021/01/30 11:18:47;;;;;;;20.32;12.30;;;;;;;1.72;100.00;99125.69;1785375;79;21113;-73
2021/01/30 11:21:32;;;;;;;21.33;12.78;;;;;;;1.72;100.00;99128.26;1783827;79;21367;-72
2021/01/30 11:24:30;;;;;;;28.30;14.38;;;;;;;1.74;100.00;99123.75;1773138;79;21153;-69
2021/01/30 11:26:59;;;;;;;27.45;15.05;;;;;;;1.73;100.00;99128.09;1777854;79;21207;-69
2021/01/30 11:29:43;;;;;;;22.73;15.28;;;;;;;1.69;100.00;99113.95;1776189;79;21553;-70
2021/01/30 11:32:17;;;;;;;23.07;15.40;;;;;;;1.68;100.00;99117.48;1791033;79;21078;-69
2021/01/30 11:34:47;;;;;;;24.82;13.43;;;;;;;1.67;100.00;99120.53;1790514;79;21189;-70
2021/01/30 11:37:15;;;;;;;27.58;14.13;;;;;;;1.67;100.00;99121.82;1735168;82;21091;-70
2021/01/30 11:39:45;;;;;;;28.15;15.45;;;;;;;1.66;100.00;99114.25;1754074;79;21131;-71
2021/01/30 11:42:13;;;;;;;26.27;14.68;;;;;;;1.68;100.00;99117.00;1765929;80;21116;-71
2021/01/30 11:44:41;;;;;;;32.35;14.85;;;;;;;1.67;100.00;99114.11;1750632;80;20944;-70
2021/01/30 11:47:10;;;;;;;27.02;14.87;;;;;;;1.67;100.00;99111.55;1756547;79;21208;-70
2021/01/30 11:49:38;;;;;;;26.57;14.55;;;;;;;1.68;100.00;99112.34;1737181;81;20998;-77
2021/01/30 11:52:07;;;;;;;28.50;15.35;;;;;;;1.68;100.00;99117.48;1735772;82;22336;-72
2021/01/30 11:54:37;;;;;;;24.40;15.00;;;;;;;1.69;100.00;99112.18;1682192;82;21001;-70
2021/01/30 11:57:06;;;;;;;28.95;15.48;;;;;;;1.72;100.00;99108.51;1753085;79;21134;-67
2021/01/30 11:59:34;;;;;;;26.10;14.65;;;;;;;1.75;100.00;99109.97;1754757;79;22643;-76
2021/01/30 12:02:03;;;;;;;28.90;16.00;;;;;;;1.77;100.00;99108.04;1755197;79;21206;-71
2021/01/30 12:04:32;;;;;;;25.57;15.58;;;;;;;1.78;100.00;99096.80;1736892;81;21132;-68
2021/01/30 12:07:00;;;;;;;25.23;15.15;;;;;;;1.80;100.00;99091.03;1764351;80;21581;-67
2021/01/30 12:09:28;;;;;;;25.17;16.42;;;;;;;1.80;100.00;99086.70;1783892;79;21631;-80
2021/01/30 12:11:59;;;;;;;29.05;17.17;;;;;;;1.80;100.00;99092.32;1802677;79;21104;-70
2021/01/30 12:14:39;;;;;;;35.30;17.23;;;;;;;1.79;100.00;99084.30;1793080;79;21499;-69
2021/01/30 12:17:18;;;;;;;29.10;18.35;;;;;;;1.80;100.00;99080.76;1804624;79;21062;-69
2021/01/30 12:19:46;;;;;;;31.27;16.70;;;;;;;1.81;100.00;99073.37;1796703;79;21128;-71
2021/01/30 12:22:14;;;;;;;25.60;16.52;;;;;;;1.83;100.00;99070.17;1796090;79;21892;-72
2021/01/30 12:24:42;;;;;;;29.65;17.52;;;;;;;1.83;100.00;99063.27;1804432;79;22150;-73
2021/01/30 12:27:11;;;;;;;33.38;20.15;;;;;;;1.85;100.00;99069.04;1801929;79;20962;-73
2021/01/30 12:29:39;;;;;;;28.32;17.00;;;;;;;1.85;100.00;99063.09;1796887;79;22220;-72
2021/01/30 12:32:09;;;;;;;26.77;15.50;;;;;;;1.84;100.00;99062.30;1810563;79;21209;-75
2021/01/30 12:34:38;;;;;;;20.35;12.80;;;;;;;1.83;100.00;99058.61;1750555;80;21192;-75
2021/01/30 12:37:06;;;;;;;22.22;14.28;;;;;;;1.80;100.00;99060.20;1766936;80;21367;-72
2021/01/30 12:39:34;;;;;;;20.72;13.28;;;;;;;1.79;100.00;99054.75;1773093;79;21267;-72
2021/01/30 12:42:04;;;;;;;23.18;12.90;;;;;;;1.79;100.00;99058.61;1766159;79;21043;-72
2021/01/30 12:44:32;;;;;;;19.67;13.30;;;;;;;1.79;100.00;99049.13;1769352;79;21615;-73
2021/01/30 12:47:01;;;;;;;22.82;13.50;;;;;;;1.81;100.00;99046.39;1746936;81;21108;-76
2021/01/30 12:49:29;;;;;;;24.35;13.13;;;;;;;1.81;100.00;99043.34;1763985;79;21440;-73
2021/01/30 12:51:58;;;;;;;21.30;13.70;;;;;;;1.82;100.00;99035.14;1796027;79;21148;-73
2021/01/30 12:54:26;;;;;;;20.27;11.85;;;;;;;1.84;100.00;99037.09;1811242;79;21011;-74
2021/01/30 12:56:55;;;;;;;23.60;15.28;;;;;;;1.86;100.00;99035.98;1795233;79;21030;-73
2021/01/30 12:59:23;;;;;;;19.50;14.25;;;;;;;1.86;100.00;99032.13;1806476;79;21059;-72
2021/01/30 13:01:53;;;;;;;24.18;13.38;;;;;;;1.90;100.00;99022.34;1801447;79;21578;-73
2021/01/30 13:04:21;;;;;;;24.47;14.23;;;;;;;1.92;100.00;99024.25;1804438;79;21067;-72
2021/01/30 13:06:50;;;;;;;23.47;15.70;;;;;;;1.94;100.00;99025.72;1806513;79;20967;-73
2021/01/30 13:09:20;;;;;;;24.45;16.20;;;;;;;1.98;100.00;99018.50;1806727;79;21125;-72
2021/01/30 13:11:50;;;;;;;23.52;14.60;;;;;;;2.02;100.00;99015.13;1785759;79;21174;-72
2021/01/30 13:14:19;;;;;;;25.50;16.48;;;;;;;2.03;100.00;99009.02;1795649;79;21374;-72
2021/01/30 13:16:47;;;;;;;22.93;15.10;;;;;;;2.04;100.00;99007.56;1788199;79;21181;-72
2021/01/30 13:19:16;;;;;;;24.23;15.05;;;;;;;2.06;100.00;99009.51;1793027;79;21476;-72
2021/01/30 13:21:47;;;;;;;24.70;15.35;;;;;;;2.07;100.00;99005.97;1790644;79;21664;-72
2021/01/30 13:24:16;;;;;;;21.75;14.38;;;;;;;2.10;100.00;99005.66;1796180;79;21035;-72
2021/01/30 13:26:44;;;;;;;21.62;15.55;;;;;;;2.11;100.00;99003.40;1784856;79;22447;-72
2021/01/30 13:29:15;;;;;;;23.12;14.30;;;;;;;2.12;100.00;99002.45;1789448;79;20938;-71
2021/01/30 13:31:48;;;;;;;21.90;13.75;;;;;;;2.16;100.00;98997.80;1784509;79;21153;-72
2021/01/30 13:34:17;;;;;;;21.20;13.48;;;;;;;2.17;100.00;98996.83;1791895;79;21606;-72
2021/01/30 13:36:45;;;;;;;20.57;14.87;;;;;;;2.18;100.00;98991.52;1783014;79;20959;-76
2021/01/30 13:39:13;;;;;;;24.05;15.53;;;;;;;2.19;100.00;98995.69;1796036;79;21190;-72
2021/01/30 13:41:42;;;;;;;19.65;14.05;;;;;;;2.22;100.00;98993.78;1785305;79;21142;-72
2021/01/30 13:44:10;;;;;;;23.90;14.95;;;;;;;2.27;100.00;98983.80;1794529;79;21133;-72
2021/01/30 13:46:38;;;;;;;21.95;16.27;;;;;;;2.31;100.00;98983.34;1793388;79;20984;-71
2021/01/30 13:49:07;;;;;;;23.83;15.25;;;;;;;2.37;100.00;98987.02;1786304;79;21130;-71
2021/01/30 13:51:35;;;;;;;22.62;14.63;;;;;;;2.42;100.00;98983.48;1796775;78;21138;-74
2021/01/30 13:54:04;;;;;;;21.05;16.80;;;;;;;2.48;100.00;98984.12;1778163;79;21484;-72
2021/01/30 13:56:33;;;;;;;24.45;17.25;;;;;;;2.52;100.00;98985.89;1791047;79;21055;-72
2021/01/30 13:59:02;;;;;;;20.80;14.25;;;;;;;2.55;100.00;98983.80;1780974;79;21098;-72
2021/01/30 14:01:30;;;;;;;22.82;16.45;;;;;;;2.58;100.00;98982.20;1786378;79;21161;-72
2021/01/30 14:03:59;;;;;;;21.57;14.60;;;;;;;2.61;100.00;98983.16;1784732;79;22196;-71
2021/01/30 14:06:27;;;;;;;26.37;18.92;;;;;;;2.65;100.00;98970.75;1783770;79;21237;-71
2021/01/30 14:08:58;;;;;;;28.62;18.12;;;;;;;2.68;100.00;98980.72;1791586;79;21469;-72
2021/01/30 14:11:27;;;;;;;24.55;17.20;;;;;;;2.71;100.00;98975.73;1794409;79;21601;-71
2021/01/30 14:13:56;;;;;;;23.25;16.55;;;;;;;2.76;100.00;98975.55;1800520;79;21492;-72
2021/01/30 14:16:25;;;;;;;29.77;19.42;;;;;;;2.81;100.00;98968.66;1790626;78;22727;-72
2021/01/30 14:18:54;;;;;;;25.00;18.50;;;;;;;2.85;100.00;98975.88;1804806;79;21533;-71
2021/01/30 14:21:23;;;;;;;25.77;17.60;;;;;;;2.89;100.00;98959.62;1797487;78;21085;-72
2021/01/30 14:23:52;;;;;;;27.70;18.70;;;;;;;2.95;100.00;98956.85;1797643;79;21043;-72
2021/01/30 14:26:21;;;;;;;30.15;20.97;;;;;;;3.01;100.00;98958.77;1803758;79;21116;-72
2021/01/30 14:28:50;;;;;;;33.95;22.50;;;;;;;3.06;100.00;98957.29;1805197;79;22267;-72
2021/01/30 14:31:18;;;;;;;30.77;22.60;;;;;;;3.11;100.00;98956.33;1802338;79;21258;-72
2021/01/30 14:33:47;;;;;;;37.15;23.20;;;;;;;3.17;100.00;98953.06;1799983;79;20956;-72
2021/01/30 14:36:15;;;;;;;221.10;136.28;;;;;;;3.22;100.00;98954.34;1793980;79;21049;-72
2021/01/30 14:38:45;;;;;;;187.72;106.70;;;;;;;3.25;100.00;98956.09;1758706;80;21482;-73
2021/01/30 14:41:13;;;;;;;81.57;46.53;;;;;;;3.30;100.00;98958.98;1794881;79;22454;-71
2021/01/30 14:43:41;;;;;;;398.02;229.75;;;;;;;3.35;100.00;98954.61;1802832;79;21097;-71
2021/01/30 14:46:09;;;;;;;308.73;211.37;;;;;;;3.41;100.00;98953.95;1794749;79;21152;-71
2021/01/30 14:48:39;;;;;;;176.27;137.92;;;;;;;3.45;100.00;98955.67;1794906;79;21139;-73
2021/01/30 14:51:07;;;;;;;107.65;86.32;;;;;;;3.50;100.00;98949.55;1804754;79;22438;-71
2021/01/30 14:53:35;;;;;;;87.70;55.63;;;;;;;3.55;100.00;98953.20;1800197;79;21521;-71
2021/01/30 14:56:04;;;;;;;48.38;34.33;;;;;;;3.61;100.00;98949.97;1797674;79;21515;-72
2021/01/30 14:58:32;;;;;;;41.88;32.25;;;;;;;3.69;100.00;98953.47;1807997;77;20917;-73
2021/01/30 15:01:00;;;;;;;50.80;42.67;;;;;;;3.75;100.00;98946.33;1795830;77;22398;-71
2021/01/30 15:03:28;;;;;;;239.10;185.65;;;;;;;3.82;100.00;98940.80;1804348;79;21142;-72
2021/01/30 15:05:57;;;;;;;109.87;85.28;;;;;;;3.89;100.00;98947.67;1804437;79;21692;-73
2021/01/30 15:08:25;;;;;;;216.42;139.10;;;;;;;3.96;100.00;98948.29;1763563;80;21171;-74
2021/01/30 15:10:55;;;;;;;65.12;49.55;;;;;;;4.02;100.00;98940.67;1767000;79;21068;-73
2021/01/30 15:13:23;;;;;;;37.17;26.68;;;;;;;4.08;100.00;98944.32;1758544;79;21242;-74
2021/01/30 15:15:52;;;;;;;50.78;37.17;;;;;;;4.12;100.00;98942.51;1750563;79;21050;-74
2021/01/30 15:18:20;;;;;;;25.72;14.80;;;;;;;4.17;100.00;98934.73;1752533;79;22493;-74
2021/01/30 15:20:49;;;;;;;28.15;14.70;;;;;;;4.22;100.00;98941.48;1757238;79;21125;-73
2021/01/30 15:23:18;;;;;;;45.10;22.40;;;;;;;4.26;100.00;98940.16;1723906;82;22199;-73
2021/01/30 15:25:46;;;;;;;29.40;17.02;;;;;;;4.30;100.00;98934.47;1752458;79;21083;-72
2021/01/30 15:28:15;;;;;;;23.55;13.13;;;;;;;4.36;100.00;98932.98;1748384;79;21001;-73
2021/01/30 15:30:45;;;;;;;37.73;16.82;;;;;;;4.37;100.00;98935.87;1759824;79;21207;-72
2021/01/30 15:33:14;;;;;;;43.87;18.77;;;;;;;4.38;100.00;98936.17;1754788;80;21092;-70
2021/01/30 15:35:44;;;;;;;30.00;14.73;;;;;;;4.39;100.00;98933.44;1752559;80;21097;-70
2021/01/30 15:38:13;;;;;;;26.23;12.25;;;;;;;4.41;100.00;98929.38;1760504;80;21197;-70
2021/01/30 15:40:41;;;;;;;24.37;11.40;;;;;;;4.41;100.00;98929.38;1758918;79;21566;-70
2021/01/30 15:43:10;;;;;;;39.70;14.47;;;;;;;4.44;100.00;98929.03;1752381;79;21540;-68
2021/01/30 15:45:38;;;;;;;26.95;14.07;;;;;;;4.46;100.00;98927.06;1758966;80;21154;-69
2021/01/30 15:48:07;;;;;;;25.32;12.85;;;;;;;4.46;100.00;98927.06;1793738;79;21132;-72
2021/01/30 15:50:37;;;;;;;30.70;12.70;;;;;;;4.46;100.00;98928.34;1799263;77;21176;-73
2021/01/30 15:53:06;;;;;;;25.10;11.12;;;;;;;4.47;100.00;98927.39;1786771;79;21194;-68
2021/01/30 15:55:35;;;;;;;26.00;12.03;;;;;;;4.48;100.00;98926.41;1793418;79;21328;-70
2021/01/30 15:58:03;;;;;;;157.78;65.28;;;;;;;4.48;100.00;98923.83;1793093;79;21137;-70